aviador You're here:

PAWS Decoded Metar

WASILLA in AK, USA
Report Time2018-01-19 10:29:00
UTC Time2018-01-19 11:10:15
Flight Rules vfr VFR
WindCalm
Visibility9999 m
Phenomena:N/A
Clouds:Scattered 007 Hf
Overcast 070 Hf
Expected CloudBase > 400 ft AGL from Temp-Dew spread
Ceiling7,000 ft
Temp-6°C (ISA -20)
Dew Point-7°C (93% RH)
AAT-8.8°C
QNH1000 hPa
Density Alt-1,663 ft
Elevation351 ft
Report Wrong Elevation
Raw Report
PAWS 191029Z AUTO 00000KT 10SM SCT007 OVC070 M06/M07 A2953 RMK AO2
FZRANO=

Extra information for PAWS:More info

Metar Taf Metar & Taf Last 4 Metars F.Rules Stats Wind Profile Meteogram Temp Stats Airport Information Weather charts Add Link Nearby VenuesMetar ALERT Operation Metar Decoded Social comments

AIRNAV info for PAWS